Time;durP1;ratioP1;P1;durP2;ratioP2;P2;SDS_P1;SDS_P2;PMS_P1;PMS_P2;Temp;Humidity;BMP_temperature;BMP_pressure;BME280_temperature;BME280_humidity;BME280_pressure;Samples;Min_cycle;Max_cycle;Signal;HPM_P1;HPM_P2
2023/10/12 00:00:24;;;;;;;15.90;4.60;;;;;;;18.97;66.46;100072.20;105045;1262;81576;-59
2023/10/12 00:03:12;;;;;;;13.00;3.70;;;;;;;18.95;66.28;100070.52;105008;1260;74027;-59
2023/10/12 00:05:45;;;;;;;13.50;4.20;;;;;;;18.93;66.30;100067.10;105042;1260;69030;-59
2023/10/12 00:08:30;;;;;;;10.50;3.90;;;;;;;18.91;66.24;100065.47;105095;1259;69251;-59
2023/10/12 00:11:06;;;;;;;8.50;3.90;;;;;;;18.92;66.13;100062.04;105081;1260;75148;-59
2023/10/12 00:13:41;;;;;;;9.30;3.70;;;;;;;18.93;66.09;100064.48;105142;1262;81509;-59
2023/10/12 00:16:09;;;;;;;10.70;4.10;;;;;;;18.90;65.94;100058.11;105182;1260;70901;-58
2023/10/12 00:18:38;;;;;;;10.30;4.30;;;;;;;18.87;65.94;100058.38;105146;1260;69203;-59
2023/10/12 00:21:15;;;;;;;13.10;4.60;;;;;;;18.84;65.83;100058.40;105086;1261;69200;-59
2023/10/12 00:23:47;;;;;;;15.40;4.80;;;;;;;18.82;65.77;100057.17;105053;1260;73463;-59
2023/10/12 00:26:15;;;;;;;11.00;4.20;;;;;;;18.81;65.70;100057.10;105077;1259;81240;-59
2023/10/12 00:28:45;;;;;;;6.40;3.60;;;;;;;18.81;65.73;100054.75;105043;1260;70360;-59
2023/10/12 00:31:19;;;;;;;16.10;4.30;;;;;;;18.78;65.64;100053.93;105030;1261;69173;-59
2023/10/12 00:33:48;;;;;;;17.10;3.60;;;;;;;18.78;65.52;100043.87;105085;1260;69119;-59
2023/10/12 00:36:21;;;;;;;9.60;3.70;;;;;;;18.82;65.57;100045.52;105029;1259;75098;-59
2023/10/12 00:38:56;;;;;;;16.50;4.30;;;;;;;18.88;65.39;100043.92;105077;1262;81859;-59
2023/10/12 00:41:25;;;;;;;11.50;4.20;;;;;;;18.93;65.26;100039.35;105036;1261;71722;-59
2023/10/12 00:49:17;;;;;;;10.00;3.90;;;;;;;19.13;64.58;100035.79;105040;1262;72940;-59
2023/10/12 00:51:51;;;;;;;11.20;4.10;;;;;;;19.11;64.31;100033.86;105072;1262;81618;-59
2023/10/12 00:54:40;;;;;;;11.90;4.50;;;;;;;19.06;64.24;100031.57;105014;1259;71079;-59
2023/10/12 00:57:09;;;;;;;11.90;4.30;;;;;;;19.01;64.07;100021.90;105057;1262;69224;-60
2023/10/12 00:59:39;;;;;;;12.00;4.10;;;;;;;18.95;64.11;100021.27;105094;1258;69180;-59
2023/10/12 01:02:09;;;;;;;10.20;3.70;;;;;;;18.92;64.04;100021.32;105052;1261;73639;-59
2023/10/12 01:04:42;;;;;;;11.10;3.80;;;;;;;18.89;63.99;100018.52;105062;1262;81665;-59
2023/10/12 01:07:19;;;;;;;13.40;4.00;;;;;;;18.85;63.94;100014.60;105066;1260;71838;-59
2023/10/12 01:09:54;;;;;;;12.40;4.10;;;;;;;18.79;63.97;100009.08;105065;1262;69128;-59
2023/10/12 01:12:30;;;;;;;8.50;3.80;;;;;;;18.71;63.97;100000.42;105010;1264;69180;-59
2023/10/12 01:15:04;;;;;;;14.70;4.50;;;;;;;18.64;63.93;99994.12;105066;1261;74818;-59
2023/10/12 01:17:34;;;;;;;14.50;4.00;;;;;;;18.55;64.02;99994.42;105030;1262;82738;-59
2023/10/12 01:20:26;;;;;;;9.70;4.10;;;;;;;18.46;64.15;99994.91;105103;1260;72990;-59
2023/10/12 01:22:57;;;;;;;12.40;4.30;;;;;;;18.39;64.26;99990.00;105056;1262;69134;-58
2023/10/12 01:25:29;;;;;;;12.20;4.00;;;;;;;18.33;64.34;99986.02;105061;1261;69215;-58
2023/10/12 01:28:05;;;;;;;13.30;4.00;;;;;;;18.26;64.44;99987.07;105100;1259;73903;-58
2023/10/12 01:30:36;;;;;;;12.20;3.90;;;;;;;18.19;64.49;99986.21;105202;1259;82107;-58
2023/10/12 01:33:06;;;;;;;14.20;4.30;;;;;;;18.09;64.77;99990.30;105076;1259;71941;-59
2023/10/12 01:35:38;;;;;;;10.60;4.00;;;;;;;18.00;64.95;99996.24;105095;1260;69183;-59
2023/10/12 01:38:08;;;;;;;14.10;4.60;;;;;;;17.91;64.98;99996.94;105087;1259;69112;-58
2023/10/12 01:43:13;;;;;;;14.70;3.60;;;;;;;17.76;65.26;99997.16;105055;1262;82638;-58
2023/10/12 01:45:41;;;;;;;10.70;3.90;;;;;;;17.72;65.45;100006.64;105060;1259;72195;-59
2023/10/12 01:50:40;;;;;;;10.80;4.30;;;;;;;17.67;65.71;100007.86;105111;1259;69135;-59
2023/10/12 01:55:52;;;;;;;10.70;3.80;;;;;;;17.59;65.80;100007.70;105170;1262;82966;-58
2023/10/12 01:58:28;;;;;;;12.00;4.00;;;;;;;17.59;65.91;100007.93;105099;1260;71723;-58
2023/10/12 02:01:05;;;;;;;9.70;4.00;;;;;;;17.58;65.93;100002.02;104964;1263;69225;-58
2023/10/12 02:03:42;;;;;;;9.90;3.90;;;;;;;17.58;66.06;100001.06;105103;1259;69152;-58
2023/10/12 02:06:14;;;;;;;12.00;4.30;;;;;;;17.59;65.98;99995.86;104975;1259;74749;-58
2023/10/12 02:08:47;;;;;;;10.60;4.40;;;;;;;17.60;66.04;99994.92;105087;1262;82642;-58
2023/10/12 02:13:48;;;;;;;10.30;4.10;;;;;;;17.63;65.99;99991.40;105083;1259;69205;-58
2023/10/12 02:16:38;;;;;;;9.00;4.30;;;;;;;17.62;65.98;99993.91;105058;1259;69196;-59
2023/10/12 02:19:07;;;;;;;11.70;4.40;;;;;;;17.59;65.98;99989.55;105082;1259;73996;-59
2023/10/12 02:21:40;;;;;;;8.00;4.00;;;;;;;17.57;66.03;99989.84;105086;1262;81953;-58
2023/10/12 02:26:39;;;;;;;12.00;3.80;;;;;;;17.57;66.06;99986.35;105055;1262;69148;-58
2023/10/12 02:31:54;;;;;;;13.90;4.50;;;;;;;17.57;66.07;99984.36;105094;1260;72558;-58
2023/10/12 02:34:31;;;;;;;11.40;4.60;;;;;;;17.58;66.13;99991.16;105096;1259;81512;-59
2023/10/12 02:39:41;;;;;;;9.40;4.30;;;;;;;17.56;66.00;99989.37;105046;1259;69173;-59
2023/10/12 02:45:28;;;;;;;14.10;4.30;;;;;;;17.53;66.05;99990.34;105020;1264;72408;-58
2023/10/12 02:47:30;;;;;;;11.60;4.00;;;;;;;17.50;66.00;99990.70;104917;1259;82697;-59
2023/10/12 02:52:35;;;;;;;13.70;3.90;;;;;;;17.54;66.16;99996.58;105042;1262;69549;-58
2023/10/12 02:57:54;;;;;;;8.90;3.60;;;;;;;17.57;66.15;99993.95;105135;1260;75131;-58
2023/10/12 03:00:34;;;;;;;11.10;4.00;;;;;;;17.60;66.17;99989.81;105117;1259;80644;-58
2023/10/12 03:03:07;;;;;;;10.10;3.60;;;;;;;17.67;66.18;99984.02;105120;1259;71799;-59
2023/10/12 03:05:47;;;;;;;9.90;3.70;;;;;;;17.71;66.05;99976.63;105074;1261;69076;-58
2023/10/12 03:08:16;;;;;;;12.40;4.40;;;;;;;17.73;65.94;99967.70;105058;1260;69166;-58
2023/10/12 03:11:32;;;;;;;;;;;;;;;17.71;65.94;99971.50;105128;1259;75064;-59
2023/10/12 03:13:36;;;;;;;9.10;3.50;;;;;;;17.67;65.80;99965.98;104978;1259;82336;-59
2023/10/12 03:16:13;;;;;;;8.80;3.70;;;;;;;17.64;65.88;99959.69;105078;1261;73066;-58
2023/10/12 03:18:42;;;;;;;11.10;3.70;;;;;;;17.61;65.88;99959.95;105083;1262;69241;-58
2023/10/12 03:21:11;;;;;;;11.90;3.90;;;;;;;17.56;65.79;99964.69;105103;1262;69190;-59
2023/10/12 03:23:46;;;;;;;7.30;3.50;;;;;;;17.49;65.79;99960.56;105164;1257;75122;-58
2023/10/12 03:26:23;;;;;;;9.00;3.90;;;;;;;17.42;65.89;99965.55;105018;1259;83755;-59
2023/10/12 03:29:18;;;;;;;12.50;4.00;;;;;;;17.32;65.99;99965.50;105108;1260;71683;-59
2023/10/12 03:36:59;;;;;;;9.90;3.90;;;;;;;17.05;66.33;99969.89;105089;1259;72230;-59
2023/10/12 03:39:28;;;;;;;13.30;4.00;;;;;;;17.00;66.48;99971.00;105025;1260;81115;-58
2023/10/12 03:52:27;;;;;;;9.20;3.60;;;;;;;16.80;67.25;99971.88;105058;1262;81941;-58
2023/10/12 04:05:36;;;;;;;11.30;3.80;;;;;;;16.82;67.76;99970.46;105077;1259;81957;-58
2023/10/12 04:21:23;;;;;;;10.80;4.20;;;;;;;17.64;66.94;99973.98;105086;1258;72126;-59
2023/10/12 04:26:38;;;;;;;13.30;3.90;;;;;;;17.84;66.39;99973.61;105099;1262;69272;-59
2023/10/12 04:31:50;;;;;;;11.20;3.70;;;;;;;18.03;65.92;99969.39;105043;1260;82576;-59
2023/10/12 04:34:26;;;;;;;10.40;3.90;;;;;;;18.09;65.67;99971.91;105062;1260;72754;-58
2023/10/12 04:37:31;;;;;;;12.20;3.70;;;;;;;18.16;65.36;99971.91;105059;1260;69198;-59
2023/10/12 04:39:49;;;;;;;11.50;4.00;;;;;;;18.27;65.13;99974.43;105050;1259;69289;-59
2023/10/12 04:42:20;;;;;;;6.60;3.00;;;;;;;18.36;64.99;99975.02;105100;1260;73574;-59
2023/10/12 04:45:03;;;;;;;9.10;3.40;;;;;;;18.42;64.82;99972.78;105104;1262;83172;-59
2023/10/12 04:47:31;;;;;;;9.70;3.60;;;;;;;18.48;64.48;99978.50;105053;1259;72977;-59
2023/10/12 04:49:59;;;;;;;15.20;4.50;;;;;;;18.58;64.27;99969.11;105125;1258;69189;-59
2023/10/12 04:52:36;;;;;;;8.40;4.00;;;;;;;18.68;63.96;99981.95;105116;1262;69164;-59
2023/10/12 04:55:20;;;;;;;11.30;3.90;;;;;;;18.74;63.68;99980.77;105086;1260;74991;-59
2023/10/12 04:58:09;;;;;;;11.10;4.10;;;;;;;18.79;63.38;99982.18;105135;1262;81982;-59
2023/10/12 05:00:55;;;;;;;12.50;3.80;;;;;;;18.84;63.18;99979.99;105100;1262;72637;-59
2023/10/12 05:03:33;;;;;;;9.20;3.90;;;;;;;18.89;62.79;99988.85;105110;1261;69300;-59
2023/10/12 05:06:09;;;;;;;10.80;3.90;;;;;;;18.91;62.62;99987.45;105085;1259;69181;-59
2023/10/12 05:08:40;;;;;;;10.90;4.30;;;;;;;18.93;62.49;99990.10;105059;1262;74654;-59
2023/10/12 05:11:09;;;;;;;10.30;3.80;;;;;;;18.97;62.49;99994.59;105064;1262;82832;-59
2023/10/12 05:13:43;;;;;;;10.40;3.70;;;;;;;18.97;62.31;99995.27;105107;1260;72793;-59
2023/10/12 05:16:15;;;;;;;9.50;3.60;;;;;;;18.97;62.31;99992.24;105300;1262;69243;-59
2023/10/12 05:18:47;;;;;;;11.10;4.00;;;;;;;18.97;62.14;99995.80;105283;1259;69123;-60
2023/10/12 05:21:16;;;;;;;14.40;4.20;;;;;;;18.94;62.09;100000.09;105239;1259;74993;-59
2023/10/12 05:23:44;;;;;;;10.90;3.70;;;;;;;18.93;62.05;100001.78;105143;1261;82886;-60
2023/10/12 05:26:14;;;;;;;12.70;4.40;;;;;;;18.93;62.00;99998.58;105085;1262;72064;-59
2023/10/12 05:28:58;;;;;;;;;;;;;;;18.93;61.84;99997.16;105353;1257;69050;-60
2023/10/12 05:31:28;;;;;;;15.70;4.70;;;;;;;18.96;61.88;99996.27;105248;1260;69759;-60
2023/10/12 05:36:44;;;;;;;11.30;4.10;;;;;;;18.93;61.89;100001.38;105349;1260;82757;-60
2023/10/12 05:39:12;;;;;;;10.70;4.20;;;;;;;18.93;61.88;100009.39;105198;1260;73016;-61
2023/10/12 05:41:40;;;;;;;13.30;3.90;;;;;;;18.92;61.78;100018.69;105256;1257;69164;-59
2023/10/12 05:44:08;;;;;;;11.70;4.00;;;;;;;18.93;61.73;100025.48;105209;1262;69156;-59
2023/10/12 05:46:38;;;;;;;9.20;3.80;;;;;;;18.96;61.66;100022.32;105253;1260;75080;-60
2023/10/12 05:49:13;;;;;;;9.50;3.70;;;;;;;18.98;61.65;100032.60;105169;1259;82862;-60
2023/10/12 05:51:44;;;;;;;10.00;3.90;;;;;;;19.00;61.51;100036.99;105421;1260;72613;-60
2023/10/12 05:54:20;;;;;;;14.70;4.20;;;;;;;19.00;61.69;100039.47;105164;1260;69214;-59
2023/10/12 05:56:49;;;;;;;14.30;4.20;;;;;;;19.00;61.65;100046.91;105227;1259;69186;-60
2023/10/12 05:59:18;;;;;;;12.80;4.20;;;;;;;19.02;61.59;100042.40;105263;1260;73831;-59
2023/10/12 06:01:48;;;;;;;11.10;4.40;;;;;;;19.01;61.65;100041.37;105137;1262;82544;-60
2023/10/12 06:04:20;;;;;;;11.20;3.90;;;;;;;19.00;61.71;100043.02;105147;1259;71793;-59
2023/10/12 06:06:51;;;;;;;11.30;3.80;;;;;;;19.01;61.70;100048.10;105225;1262;69190;-60
2023/10/12 06:09:23;;;;;;;10.90;4.00;;;;;;;19.00;61.57;100057.17;105252;1259;69078;-59
2023/10/12 06:11:53;;;;;;;13.10;4.40;;;;;;;19.00;61.77;100056.52;105201;1263;73835;-59
2023/10/12 06:14:22;;;;;;;11.80;3.90;;;;;;;18.98;61.77;100063.55;105220;1259;82688;-60
2023/10/12 06:17:02;;;;;;;9.50;3.80;;;;;;;18.97;61.83;100064.55;105236;1260;71726;-60
2023/10/12 06:19:37;;;;;;;;;;;;;;;18.97;61.92;100062.76;105111;1259;70000;-59
2023/10/12 06:22:23;;;;;;;14.40;4.30;;;;;;;18.94;61.90;100072.31;104942;1262;377010;-60
2023/10/12 06:24:54;;;;;;;12.90;3.80;;;;;;;18.95;62.11;100075.27;105307;1262;72539;-59
2023/10/12 06:27:23;;;;;;;10.30;3.90;;;;;;;18.96;62.16;100081.95;105179;1262;81885;-59
2023/10/12 06:29:53;;;;;;;12.00;3.90;;;;;;;18.97;62.20;100088.80;105285;1259;73024;-59
2023/10/12 06:32:32;;;;;;;12.90;4.00;;;;;;;18.99;62.31;100092.69;105188;1259;69064;-59
2023/10/12 06:45:52;;;;;;;10.30;3.90;;;;;;;19.12;62.55;100092.23;105190;1262;69090;-60
2023/10/12 06:51:02;;;;;;;10.50;4.20;;;;;;;19.17;62.62;100096.92;105201;1259;74737;-58
2023/10/12 06:53:35;;;;;;;;;;;;;;;19.23;62.75;100109.10;105170;1259;80603;-59
2023/10/12 06:58:46;;;;;;;10.60;3.90;;;;;;;19.31;62.77;100124.42;105109;1260;69132;-58
2023/10/12 07:04:15;;;;;;;8.80;4.10;;;;;;;19.40;62.76;100135.54;105001;1259;75044;-59
2023/10/12 07:06:59;;;;;;;10.00;3.60;;;;;;;19.46;62.78;100134.37;105274;1261;83357;-58
2023/10/12 07:09:39;;;;;;;14.00;4.30;;;;;;;19.50;62.83;100141.35;105209;1260;73092;-60
2023/10/12 07:12:11;;;;;;;10.70;4.10;;;;;;;19.50;62.72;100143.50;105177;1261;69157;-58
2023/10/12 07:14:47;;;;;;;9.20;3.60;;;;;;;19.47;62.78;100147.58;105195;1262;69209;-59
2023/10/12 07:17:16;;;;;;;10.40;3.80;;;;;;;19.45;62.66;100151.35;105238;1262;73123;-58
2023/10/12 07:19:49;;;;;;;13.90;3.90;;;;;;;19.42;62.77;100155.98;105158;1262;82835;-58
2023/10/12 07:22:18;;;;;;;10.70;4.50;;;;;;;19.39;62.83;100161.88;105208;1262;70823;-59
2023/10/12 07:24:56;;;;;;;11.90;4.70;;;;;;;19.37;62.95;100165.89;105086;1260;69257;-60
2023/10/12 07:27:26;;;;;;;10.90;4.30;;;;;;;19.35;63.05;100175.65;105267;1259;69129;-58
2023/10/12 07:32:56;;;;;;;11.20;4.40;;;;;;;19.32;63.18;100184.03;104950;1262;81660;-60
2023/10/12 07:35:41;;;;;;;10.30;4.40;;;;;;;19.31;63.22;100187.60;105078;1260;72757;-60
2023/10/12 07:38:14;;;;;;;12.20;4.30;;;;;;;19.32;63.38;100189.49;106040;1258;69125;-61
2023/10/12 07:40:56;;;;;;;10.70;4.30;;;;;;;19.32;63.45;100196.94;105049;1259;69195;-62
2023/10/12 07:43:25;;;;;;;10.80;3.90;;;;;;;19.33;63.50;100203.26;105063;1262;75186;-61
2023/10/12 07:46:24;;;;;;;9.80;4.40;;;;;;;19.32;63.43;100203.30;105049;1262;82896;-61
2023/10/12 07:49:10;;;;;;;12.00;5.10;;;;;;;19.31;63.47;100213.30;105179;1259;71113;-61
2023/10/12 07:51:59;;;;;;;15.00;4.60;;;;;;;19.30;63.71;100211.61;105226;1258;69099;-62
2023/10/12 07:54:46;;;;;;;11.10;4.40;;;;;;;19.25;63.68;100220.33;105100;1262;69132;-61
2023/10/12 07:57:15;;;;;;;11.00;4.70;;;;;;;19.20;63.94;100222.12;105058;1259;74203;-61
2023/10/12 08:08:37;;;;;;;13.20;4.40;;;;;;;18.83;64.92;100247.17;105016;1259;69245;-62
2023/10/12 08:13:26;;;;;;;12.80;4.10;;;;;;;18.48;66.00;100259.87;105030;1259;82911;-62
2023/10/12 08:15:56;;;;;;;15.30;4.30;;;;;;;18.35;66.49;100266.27;105054;1262;72058;-63
2023/10/12 08:26:51;;;;;;;12.00;4.90;;;;;;;18.02;68.72;100276.17;105034;1261;82462;-63
2023/10/12 08:45:15;;;;;;;12.90;4.30;;;;;;;17.59;71.67;100290.94;105085;1259;69157;-63
2023/10/12 08:47:48;;;;;;;12.40;5.00;;;;;;;17.51;72.12;100289.94;105033;1259;69254;-63
2023/10/12 08:52:53;;;;;;;13.10;4.70;;;;;;;17.41;73.50;100292.34;105106;1262;82894;-63
2023/10/12 08:55:25;;;;;;;10.60;4.40;;;;;;;17.33;73.69;100293.79;105026;1258;71673;-63
2023/10/12 08:58:12;;;;;;;10.10;4.70;;;;;;;17.26;74.68;100295.13;105045;1262;69202;-63
2023/10/12 09:01:31;;;;;;;12.70;5.20;;;;;;;17.24;75.43;100298.77;105044;1262;69209;-63
2023/10/12 09:03:39;;;;;;;11.20;4.60;;;;;;;17.23;76.16;100297.61;105001;1259;73407;-63
2023/10/12 09:08:56;;;;;;;10.70;5.20;;;;;;;17.28;77.08;100292.88;104980;1262;72970;-62
2023/10/12 09:11:33;;;;;;;;;;;;;;;17.34;77.50;100299.19;105163;1262;69138;-62
2023/10/12 09:14:16;;;;;;;12.40;5.00;;;;;;;17.39;77.83;100311.89;105084;1260;69189;-62
2023/10/12 09:16:53;;;;;;;9.30;4.90;;;;;;;17.43;77.92;100325.25;105076;1261;75298;-61
2023/10/12 09:19:28;;;;;;;9.30;5.10;;;;;;;17.44;78.25;100332.27;105061;1260;81432;-61
2023/10/12 09:21:58;;;;;;;11.40;4.90;;;;;;;17.41;78.65;100336.52;105031;1262;72312;-61
2023/10/12 09:24:34;;;;;;;9.80;5.10;;;;;;;17.36;78.85;100343.36;105038;1261;69155;-61
2023/10/12 09:27:49;;;;;;;12.60;5.00;;;;;;;17.27;78.84;100341.88;105067;1260;69273;-62
2023/10/12 09:29:59;;;;;;;12.90;5.00;;;;;;;17.20;79.42;100339.49;105015;1260;74983;-61
2023/10/12 09:32:28;;;;;;;10.90;5.70;;;;;;;17.14;79.64;100341.80;105036;1262;81486;-62
2023/10/12 09:35:03;;;;;;;12.50;5.50;;;;;;;17.09;80.11;100341.58;105100;1262;72247;-62
2023/10/12 09:37:45;;;;;;;13.20;6.50;;;;;;;17.06;80.33;100340.91;105122;1259;69180;-62
2023/10/12 09:40:29;;;;;;;11.40;6.40;;;;;;;17.08;80.57;100343.30;105104;1262;69225;-62
2023/10/12 09:43:00;;;;;;;13.30;5.30;;;;;;;17.03;80.74;100346.58;105048;1262;74037;-62
2023/10/12 09:45:41;;;;;;;12.90;6.20;;;;;;;17.01;81.15;100347.27;105077;1259;80194;-62
2023/10/12 09:48:18;;;;;;;12.20;5.80;;;;;;;16.97;81.42;100349.81;105037;1259;71901;-62
2023/10/12 09:50:51;;;;;;;14.40;6.30;;;;;;;16.89;81.60;100346.96;105132;1261;69135;-62
2023/10/12 09:53:26;;;;;;;15.90;5.30;;;;;;;16.74;81.71;100351.78;105050;1259;69087;-63
2023/10/12 09:58:52;;;;;;;12.70;5.70;;;;;;;16.41;82.51;100350.31;105034;1262;81848;-63
2023/10/12 10:01:29;;;;;;;10.10;5.50;;;;;;;16.28;83.35;100342.67;105060;1259;73089;-62
2023/10/12 10:04:27;;;;;;;13.20;5.50;;;;;;;16.18;84.09;100340.27;105025;1259;69243;-61
2023/10/12 10:07:09;;;;;;;;;;;;;;;16.09;84.62;100334.48;105072;1262;69304;-61
2023/10/12 10:09:38;;;;;;;12.10;5.50;;;;;;;15.98;85.23;100337.63;105052;1259;74777;-61
2023/10/12 10:12:07;;;;;;;8.20;5.10;;;;;;;15.90;85.98;100335.95;105031;1262;83024;-61
2023/10/12 10:14:36;;;;;;;15.70;6.40;;;;;;;15.86;86.59;100344.86;104999;1259;72189;-62
2023/10/12 10:17:11;;;;;;;12.90;6.00;;;;;;;15.82;87.20;100349.83;105067;1259;69087;-61
2023/10/12 10:19:39;;;;;;;11.80;6.20;;;;;;;15.78;87.62;100359.07;105054;1260;69190;-61
2023/10/12 10:22:14;;;;;;;11.40;5.80;;;;;;;15.75;88.02;100366.13;105051;1262;74431;-61
2023/10/12 10:24:46;;;;;;;11.20;5.70;;;;;;;15.73;88.67;100365.36;105067;1262;82908;-62
2023/10/12 10:27:15;;;;;;;14.70;6.30;;;;;;;15.71;89.03;100369.71;105052;1262;71724;-61
2023/10/12 10:29:55;;;;;;;11.30;5.60;;;;;;;15.68;89.48;100368.98;105052;1262;69227;-62
2023/10/12 10:32:38;;;;;;;13.90;6.40;;;;;;;15.65;89.92;100369.29;105007;1259;69291;-61
2023/10/12 10:35:12;;;;;;;11.50;6.10;;;;;;;15.62;90.33;100370.73;105078;1260;75842;-61
2023/10/12 10:37:58;;;;;;;12.80;5.90;;;;;;;15.58;90.57;100379.73;105157;1262;81667;-61
2023/10/12 10:40:45;;;;;;;14.60;6.00;;;;;;;15.58;91.44;100380.30;105044;1260;72994;-61
2023/10/12 10:43:14;;;;;;;11.80;6.00;;;;;;;15.58;91.81;100377.66;105022;1260;69108;-61
2023/10/12 10:45:56;;;;;;;8.40;5.00;;;;;;;15.57;91.93;100382.46;105084;1260;69199;-61
2023/10/12 10:48:27;;;;;;;9.60;5.30;;;;;;;15.55;92.37;100382.04;105032;1259;72220;-60
2023/10/12 10:51:27;;;;;;;10.10;5.30;;;;;;;15.56;92.86;100376.71;105030;1262;81564;-60
2023/10/12 10:53:56;;;;;;;9.90;4.90;;;;;;;15.54;92.81;100378.05;105037;1260;71898;-60
2023/10/12 10:56:38;;;;;;;9.00;4.60;;;;;;;15.51;93.12;100375.57;105061;1259;69218;-60
2023/10/12 10:59:13;;;;;;;7.80;4.00;;;;;;;15.50;93.30;100379.55;105111;1259;69298;-60
2023/10/12 11:01:51;;;;;;;7.20;3.90;;;;;;;15.47;93.45;100377.41;105087;1262;72605;-60
2023/10/12 11:07:03;;;;;;;6.30;3.50;;;;;;;15.38;93.93;100372.29;104998;1260;71872;-61
2023/10/12 11:09:49;;;;;;;;;;;;;;;15.35;94.05;100378.45;105107;1262;69134;-59
2023/10/12 11:12:22;;;;;;;5.80;3.30;;;;;;;15.32;94.34;100377.58;105057;1260;69122;-60
2023/10/12 11:15:00;;;;;;;6.10;2.80;;;;;;;15.28;94.51;100376.04;105101;1260;74441;-60
2023/10/12 11:17:31;;;;;;;6.50;3.30;;;;;;;15.27;94.64;100376.45;105050;1259;81913;-61
2023/10/12 11:20:00;;;;;;;6.00;2.90;;;;;;;15.26;95.08;100363.46;105072;1262;70343;-60
2023/10/12 11:22:28;;;;;;;6.00;2.90;;;;;;;15.27;95.19;100369.92;105103;1258;69133;-59
2023/10/12 11:24:58;;;;;;;4.40;2.70;;;;;;;15.28;95.46;100367.38;105058;1262;69187;-59
2023/10/12 11:27:34;;;;;;;5.20;2.50;;;;;;;15.33;95.93;100362.53;105064;1264;75872;-59
2023/10/12 11:30:26;;;;;;;6.90;2.60;;;;;;;15.36;95.84;100361.66;105060;1260;81556;-59
2023/10/12 11:32:58;;;;;;;5.30;2.80;;;;;;;15.40;96.38;100358.62;105008;1262;72289;-59
2023/10/12 11:35:40;;;;;;;6.80;3.40;;;;;;;15.43;96.50;100353.17;105081;1259;69185;-59
2023/10/12 11:38:19;;;;;;;4.90;2.60;;;;;;;15.47;96.80;100356.45;105066;1262;69297;-59
2023/10/12 11:40:53;;;;;;;4.60;2.60;;;;;;;15.50;96.79;100354.16;105084;1260;74240;-59
2023/10/12 11:43:26;;;;;;;5.70;2.70;;;;;;;15.52;96.83;100351.95;105068;1262;81449;-59
2023/10/12 11:46:05;;;;;;;4.30;2.20;;;;;;;15.54;97.16;100358.36;104937;1261;70555;-59
2023/10/12 11:48:34;;;;;;;4.60;2.50;;;;;;;15.56;97.34;100364.05;104986;1260;69121;-59
2023/10/12 11:51:12;;;;;;;5.30;2.10;;;;;;;15.56;97.22;100360.86;105004;1262;69654;-59
2023/10/12 11:53:41;;;;;;;7.10;2.70;;;;;;;15.58;97.46;100359.17;105059;1260;72970;-59
2023/10/12 11:56:17;;;;;;;5.80;2.20;;;;;;;15.61;97.66;100360.39;105020;1262;81459;-59
2023/10/12 11:58:50;;;;;;;6.90;2.50;;;;;;;15.63;97.72;100362.20;104984;1260;71732;-59
2023/10/12 12:01:18;;;;;;;5.10;2.40;;;;;;;15.66;97.64;100368.73;105021;1262;69086;-60
2023/10/12 12:03:47;;;;;;;3.90;2.50;;;;;;;15.65;97.68;100370.56;104925;1260;69215;-60
2023/10/12 12:06:19;;;;;;;4.80;2.30;;;;;;;15.61;97.65;100369.88;105151;1260;73776;-60
2023/10/12 12:08:48;;;;;;;6.00;2.60;;;;;;;15.60;97.86;100368.88;105088;1262;82808;-59
2023/10/12 12:11:21;;;;;;;6.50;2.60;;;;;;;15.59;97.86;100361.17;104975;1263;72816;-60
2023/10/12 12:13:52;;;;;;;4.40;2.50;;;;;;;15.58;97.82;100361.13;104990;1262;69180;-60
2023/10/12 12:16:20;;;;;;;5.00;2.10;;;;;;;15.53;97.70;100364.72;104984;1259;69177;-59
2023/10/12 12:18:51;;;;;;;5.10;2.40;;;;;;;15.50;97.82;100364.55;104975;1262;75070;-60
2023/10/12 12:21:42;;;;;;;3.80;2.40;;;;;;;15.49;97.80;100363.74;105136;1262;82766;-61
2023/10/12 12:24:21;;;;;;;4.60;2.60;;;;;;;15.48;97.92;100369.63;105050;1259;71749;-62
2023/10/12 12:26:52;;;;;;;4.70;2.70;;;;;;;15.48;98.11;100362.53;104988;1258;69647;-61
2023/10/12 12:29:25;;;;;;;5.40;2.80;;;;;;;15.52;98.37;100362.52;105091;1259;69116;-62
2023/10/12 12:32:03;;;;;;;3.90;3.10;;;;;;;15.57;98.63;100357.61;105037;1261;75041;-58
2023/10/12 12:34:38;;;;;;;6.90;3.40;;;;;;;15.61;98.58;100355.09;105131;1263;82032;-60
2023/10/12 12:37:06;;;;;;;4.90;3.10;;;;;;;15.65;98.54;100351.87;105112;1260;73237;-59
2023/10/12 12:39:35;;;;;;;5.80;3.00;;;;;;;15.69;98.78;100349.58;105124;1262;69129;-60
2023/10/12 12:42:10;;;;;;;5.00;2.80;;;;;;;15.72;98.80;100356.59;105091;1262;69190;-60
2023/10/12 12:44:42;;;;;;;7.30;3.20;;;;;;;15.75;98.77;100360.45;105005;1260;74144;-60
2023/10/12 12:47:11;;;;;;;6.40;3.30;;;;;;;15.77;98.76;100359.47;105093;1262;81720;-60
2023/10/12 12:49:40;;;;;;;6.90;3.80;;;;;;;15.79;98.72;100358.80;105084;1260;71686;-57
2023/10/12 12:52:09;;;;;;;6.60;3.30;;;;;;;15.82;98.79;100364.80;105008;1260;69294;-60
2023/10/12 12:54:37;;;;;;;6.50;3.20;;;;;;;15.86;98.82;100364.61;105040;1260;69131;-59
2023/10/12 12:57:06;;;;;;;6.00;3.10;;;;;;;15.89;99.02;100368.30;105031;1260;73184;-58
2023/10/12 12:59:35;;;;;;;6.90;3.10;;;;;;;15.92;99.10;100368.65;105012;1262;81545;-58
2023/10/12 13:02:03;;;;;;;5.60;3.20;;;;;;;15.95;99.31;100370.04;105026;1262;71188;-59
2023/10/12 13:04:35;;;;;;;5.00;2.60;;;;;;;15.98;98.92;100366.72;105036;1262;69221;-58
2023/10/12 13:07:08;;;;;;;3.20;2.30;;;;;;;15.95;98.33;100365.27;105063;1262;69282;-58
2023/10/12 13:09:40;;;;;;;9.00;2.70;;;;;;;15.94;98.25;100367.48;105070;1262;74887;-58
2023/10/12 13:12:10;;;;;;;3.40;2.20;;;;;;;15.92;97.93;100374.99;105089;1261;82862;-58
2023/10/12 13:14:42;;;;;;;3.40;2.00;;;;;;;15.90;98.00;100379.30;105062;1258;71638;-59
2023/10/12 13:17:12;;;;;;;4.50;2.20;;;;;;;15.90;97.84;100380.41;105052;1262;69235;-59
2023/10/12 13:19:44;;;;;;;3.20;1.70;;;;;;;15.89;97.69;100388.54;105112;1259;69195;-59
2023/10/12 13:22:12;;;;;;;4.30;1.70;;;;;;;15.87;97.50;100389.72;105065;1260;74958;-59
2023/10/12 13:24:41;;;;;;;3.40;2.00;;;;;;;15.87;97.52;100386.23;105085;1262;81752;-59
2023/10/12 13:27:11;;;;;;;3.60;1.90;;;;;;;15.87;97.62;100388.32;104998;1260;71743;-60
2023/10/12 13:29:39;;;;;;;3.50;1.80;;;;;;;15.86;97.37;100388.73;104939;1263;69199;-60
2023/10/12 13:32:09;;;;;;;4.60;1.80;;;;;;;15.83;97.26;100391.91;104977;1260;69195;-60
2023/10/12 13:34:37;;;;;;;2.80;1.60;;;;;;;15.80;97.04;100393.81;105031;1265;72222;-60
2023/10/12 13:37:05;;;;;;;3.70;2.00;;;;;;;15.78;97.07;100397.84;105010;1263;81656;-60
2023/10/12 13:39:33;;;;;;;4.10;1.70;;;;;;;15.76;96.97;100400.25;105029;1264;73524;-60
2023/10/12 13:42:05;;;;;;;2.50;1.40;;;;;;;15.76;97.10;100399.34;104984;1263;69136;-61
2023/10/12 13:44:34;;;;;;;2.40;1.70;;;;;;;15.78;97.14;100395.39;105015;1264;69175;-60
2023/10/12 13:47:04;;;;;;;3.60;1.50;;;;;;;15.78;97.03;100396.95;105062;1263;75713;-61
2023/10/12 13:49:37;;;;;;;3.00;1.70;;;;;;;15.78;96.98;100400.46;105059;1259;82897;-61
2023/10/12 13:52:12;;;;;;;5.80;2.50;;;;;;;15.78;97.07;100402.60;105011;1263;70438;-61
2023/10/12 13:54:45;;;;;;;3.00;1.30;;;;;;;15.81;97.17;100404.17;105071;1261;69202;-61
2023/10/12 13:57:14;;;;;;;3.20;1.50;;;;;;;15.83;96.97;100406.48;105032;1261;69218;-61
2023/10/12 13:59:45;;;;;;;4.80;1.90;;;;;;;15.83;96.70;100409.89;105078;1262;72568;-61
2023/10/12 14:02:14;;;;;;;4.80;1.70;;;;;;;15.82;96.83;100413.25;105052;1262;82874;-61
2023/10/12 14:04:44;;;;;;;2.70;1.70;;;;;;;15.85;96.93;100410.08;105077;1260;73026;-61
2023/10/12 14:07:12;;;;;;;3.00;1.70;;;;;;;15.89;96.93;100406.88;105039;1262;69126;-60
2023/10/12 14:09:41;;;;;;;3.30;1.80;;;;;;;15.93;96.87;100409.84;105062;1262;69283;-60
2023/10/12 14:12:10;;;;;;;3.30;1.60;;;;;;;15.93;96.75;100415.26;105053;1263;74046;-60
2023/10/12 14:14:39;;;;;;;3.50;1.90;;;;;;;15.94;96.76;100416.30;105099;1260;81328;-61